createdAt,value
2023-02-27T00:00:19.369Z,57.67
2023-02-27T00:02:48.574Z,57.54
2023-02-27T00:05:16.141Z,57.66
2023-02-27T00:07:43.174Z,57.96
2023-02-27T00:10:11.858Z,57.79
2023-02-27T00:12:38.983Z,57.66
2023-02-27T00:15:12.492Z,58.24
2023-02-27T00:17:39.545Z,57.88
2023-02-27T00:20:11.209Z,58.15
2023-02-27T00:22:39.382Z,57.64
2023-02-27T00:25:07.889Z,58.33
2023-02-27T00:27:35.064Z,57.85
2023-02-27T00:30:02.019Z,58.08
2023-02-27T00:32:29.351Z,58.61
2023-02-27T00:34:56.263Z,58.00
2023-02-27T00:37:23.356Z,58.02
2023-02-27T00:39:51.005Z,58.60
2023-02-27T00:42:17.778Z,58.74
2023-02-27T00:44:44.548Z,58.28
2023-02-27T00:47:11.326Z,58.58
2023-02-27T00:49:38.153Z,58.52
2023-02-27T00:52:05.426Z,58.48
2023-02-27T00:54:32.193Z,58.63
2023-02-27T00:56:58.981Z,58.66
2023-02-27T00:59:25.763Z,58.43
2023-02-27T01:01:52.563Z,58.73
2023-02-27T01:04:19.353Z,58.93
2023-02-27T01:06:46.135Z,58.36
2023-02-27T01:09:12.912Z,58.60
2023-02-27T01:11:39.721Z,58.64
2023-02-27T01:14:06.554Z,58.84
2023-02-27T01:16:33.322Z,58.51
2023-02-27T01:19:00.119Z,58.95
2023-02-27T01:21:27.397Z,58.83
2023-02-27T01:23:54.322Z,58.52
2023-02-27T01:26:21.550Z,58.54
2023-02-27T01:28:48.312Z,58.71
2023-02-27T01:31:15.297Z,58.96
2023-02-27T01:33:42.084Z,59.07
2023-02-27T01:36:09.552Z,58.94
2023-02-27T01:38:36.429Z,58.72
2023-02-27T01:41:05.004Z,58.87
2023-02-27T01:43:31.797Z,59.10
2023-02-27T01:46:00.590Z,58.71
2023-02-27T01:48:35.871Z,58.63
2023-02-27T01:51:11.137Z,58.57
2023-02-27T01:53:41.593Z,59.03
2023-02-27T01:56:15.249Z,58.58
2023-02-27T01:58:43.515Z,58.90
2023-02-27T02:01:10.778Z,58.53
2023-02-27T02:04:00.511Z,59.03
2023-02-27T02:06:30.873Z,58.85
2023-02-27T02:08:59.644Z,58.87
2023-02-27T02:11:28.810Z,58.70
2023-02-27T02:13:59.753Z,58.92
2023-02-27T02:17:04.089Z,58.72
2023-02-27T02:20:13.733Z,59.04
2023-02-27T02:23:31.779Z,59.24
2023-02-27T02:26:27.738Z,59.24
2023-02-27T02:29:54.341Z,59.08
2023-02-27T02:32:48.863Z,59.24
2023-02-27T02:35:38.824Z,59.69
2023-02-27T02:38:43.601Z,59.70
2023-02-27T02:41:30.000Z,59.66
2023-02-27T02:44:19.802Z,59.50
2023-02-27T02:47:27.616Z,59.72
2023-02-27T02:50:03.457Z,59.83
2023-02-27T02:52:42.837Z,59.59
2023-02-27T02:55:19.164Z,59.66
2023-02-27T02:58:10.276Z,59.52
2023-02-27T03:00:48.840Z,59.50
2023-02-27T03:03:28.926Z,59.48
2023-02-27T03:06:05.842Z,59.33
2023-02-27T03:08:50.235Z,59.26
2023-02-27T03:11:17.182Z,59.40
2023-02-27T03:13:54.806Z,59.13
2023-02-27T03:16:42.733Z,59.44
2023-02-27T03:19:24.006Z,59.66
2023-02-27T03:22:00.563Z,59.61
2023-02-27T03:24:44.670Z,59.90
2023-02-27T03:27:11.903Z,59.71
2023-02-27T03:30:07.401Z,59.60
2023-02-27T03:32:53.607Z,59.83
2023-02-27T03:35:20.717Z,59.75
2023-02-27T03:38:02.312Z,60.05
2023-02-27T03:40:47.944Z,60.13
2023-02-27T03:43:29.291Z,59.86
2023-02-27T03:46:05.424Z,59.46
2023-02-27T03:48:32.342Z,59.86
2023-02-27T03:50:59.431Z,59.84
2023-02-27T03:53:41.060Z,59.67
2023-02-27T03:56:09.980Z,60.03
2023-02-27T03:58:36.839Z,60.08
2023-02-27T04:01:04.465Z,60.06
2023-02-27T04:03:37.611Z,59.70
2023-02-27T04:06:25.179Z,59.78
2023-02-27T04:09:42.899Z,60.21
2023-02-27T04:13:11.168Z,60.20
2023-02-27T04:16:44.508Z,60.15
2023-02-27T04:19:39.955Z,60.52
2023-02-27T04:22:21.566Z,60.23
2023-02-27T04:25:09.322Z,60.38
2023-02-27T04:28:04.308Z,60.00
2023-02-27T04:30:59.005Z,60.66
2023-02-27T04:33:44.005Z,60.42
2023-02-27T04:36:39.104Z,60.84
2023-02-27T04:39:22.895Z,60.34
2023-02-27T04:42:06.781Z,60.69
2023-02-27T04:44:36.408Z,60.44
2023-02-27T04:47:06.454Z,60.73
2023-02-27T04:49:43.072Z,60.35
2023-02-27T04:52:26.944Z,60.18
2023-02-27T04:55:25.209Z,60.54
2023-02-27T04:57:59.593Z,60.67
2023-02-27T05:00:29.715Z,60.99
2023-02-27T05:03:29.065Z,60.56
2023-02-27T05:06:01.109Z,60.53
2023-02-27T05:08:50.680Z,60.50
2023-02-27T05:11:29.939Z,60.60
2023-02-27T05:14:14.958Z,60.70
2023-02-27T05:16:55.751Z,61.23
2023-02-27T05:19:23.078Z,61.07
2023-02-27T05:22:16.580Z,60.78
2023-02-27T05:24:53.854Z,61.09
2023-02-27T05:27:25.914Z,61.24
2023-02-27T05:29:59.824Z,60.93
2023-02-27T05:32:44.783Z,61.43
2023-02-27T05:35:24.089Z,61.74
2023-02-27T05:38:16.249Z,61.70
2023-02-27T05:41:14.674Z,61.71
2023-02-27T05:43:47.911Z,62.03
2023-02-27T05:46:22.211Z,61.68
2023-02-27T05:49:06.138Z,61.36
2023-02-27T05:51:36.699Z,61.65
2023-02-27T05:54:10.874Z,61.48
2023-02-27T05:56:39.926Z,61.65
2023-02-27T06:00:03.033Z,61.63
2023-02-27T06:02:29.906Z,61.73
2023-02-27T06:04:56.707Z,61.69
2023-02-27T06:07:23.850Z,61.83
2023-02-27T06:09:51.904Z,61.63
2023-02-27T06:12:19.288Z,61.94
2023-02-27T06:14:46.113Z,61.68
2023-02-27T06:17:12.889Z,62.21
2023-02-27T06:19:39.658Z,61.50
2023-02-27T06:22:06.443Z,61.74
2023-02-27T06:24:33.216Z,61.88
2023-02-27T06:27:00.019Z,61.70
2023-02-27T06:29:26.812Z,62.05
2023-02-27T06:31:53.729Z,61.77
2023-02-27T06:34:20.552Z,61.76
2023-02-27T06:36:48.552Z,62.16
2023-02-27T06:39:15.335Z,62.17
2023-02-27T06:41:42.145Z,61.95
2023-02-27T06:44:08.913Z,62.10
2023-02-27T06:46:35.756Z,62.37
2023-02-27T06:49:02.726Z,62.36
2023-02-27T06:51:29.487Z,62.21
2023-02-27T06:53:56.395Z,62.12
2023-02-27T06:56:23.350Z,61.86
2023-02-27T06:58:50.143Z,62.02
2023-02-27T07:01:17.937Z,61.77
2023-02-27T07:03:44.777Z,62.17
2023-02-27T07:06:12.769Z,62.20
2023-02-27T07:09:01.145Z,62.02
2023-02-27T07:11:26.352Z,62.20
2023-02-27T07:13:53.126Z,62.60
2023-02-27T07:16:19.972Z,62.32
2023-02-27T07:18:46.893Z,62.85
2023-02-27T07:21:15.171Z,62.96
2023-02-27T07:23:42.573Z,62.78
2023-02-27T07:26:10.076Z,63.03
2023-02-27T07:28:36.968Z,62.92
2023-02-27T07:31:03.848Z,63.15
2023-02-27T07:33:32.121Z,62.76
2023-02-27T07:35:58.922Z,62.75
2023-02-27T07:38:26.215Z,62.59
2023-02-27T07:40:53.849Z,62.41
2023-02-27T07:43:20.756Z,62.30
2023-02-27T07:45:47.618Z,62.03
2023-02-27T07:48:14.406Z,61.83
2023-02-27T07:50:41.169Z,61.47
2023-02-27T07:53:08.427Z,61.31
2023-02-27T07:55:35.495Z,60.76
2023-02-27T07:58:02.248Z,60.01
2023-02-27T08:00:29.554Z,60.07
2023-02-27T08:02:56.411Z,59.49
2023-02-27T08:05:23.288Z,59.64
2023-02-27T08:07:50.109Z,59.60
2023-02-27T08:10:17.365Z,59.57
2023-02-27T08:12:44.815Z,60.17
2023-02-27T08:15:12.318Z,60.81
2023-02-27T08:17:39.212Z,60.64
2023-02-27T08:20:07.425Z,60.57
2023-02-27T08:22:34.225Z,60.55
2023-02-27T08:25:01.217Z,60.58
2023-02-27T08:27:28.117Z,60.13
2023-02-27T08:29:54.896Z,60.58
2023-02-27T08:32:21.858Z,60.18
2023-02-27T08:34:48.630Z,60.16
2023-02-27T08:37:15.442Z,60.23
2023-02-27T08:39:42.204Z,60.56
2023-02-27T08:42:09.025Z,60.52
2023-02-27T08:44:36.398Z,60.97
2023-02-27T08:47:03.167Z,60.77
2023-02-27T08:49:29.960Z,60.89
2023-02-27T08:51:56.743Z,60.79
2023-02-27T08:54:23.585Z,61.66
2023-02-27T08:56:50.421Z,61.35
2023-02-27T08:59:17.208Z,61.69
2023-02-27T09:01:44.816Z,61.49
2023-02-27T09:04:12.416Z,61.60
2023-02-27T09:06:39.882Z,61.48
2023-02-27T09:09:07.092Z,61.68
2023-02-27T09:11:33.942Z,61.99
2023-02-27T09:14:00.946Z,62.15
2023-02-27T09:16:28.488Z,62.29
2023-02-27T09:18:55.555Z,62.01
2023-02-27T09:21:24.589Z,62.19
2023-02-27T09:23:52.387Z,62.29
2023-02-27T09:26:19.492Z,61.92
2023-02-27T09:28:46.305Z,62.29
2023-02-27T09:31:13.360Z,62.04
2023-02-27T09:33:40.255Z,62.04
2023-02-27T09:36:08.165Z,61.89
2023-02-27T09:38:36.689Z,61.83
2023-02-27T09:41:05.284Z,62.03
2023-02-27T09:43:38.906Z,61.96
2023-02-27T09:46:07.570Z,61.93
2023-02-27T09:48:50.987Z,62.04
2023-02-27T09:51:19.248Z,62.17
2023-02-27T09:53:50.156Z,61.92
2023-02-27T09:56:35.793Z,62.02
2023-02-27T09:59:32.834Z,61.62
2023-02-27T10:02:47.127Z,61.68
2023-02-27T10:05:23.848Z,62.11
2023-02-27T10:08:09.088Z,61.81
2023-02-27T10:10:48.948Z,62.09
2023-02-27T10:13:36.447Z,62.09
2023-02-27T10:16:05.031Z,62.23
2023-02-27T10:18:47.251Z,61.63
2023-02-27T10:21:21.529Z,61.35
2023-02-27T10:24:07.602Z,60.41
2023-02-27T10:26:41.448Z,60.47
2023-02-27T10:29:36.751Z,60.08
2023-02-27T10:32:23.305Z,60.23
2023-02-27T10:35:10.389Z,59.91
2023-02-27T10:37:47.072Z,59.99
2023-02-27T10:40:15.952Z,59.63
2023-02-27T10:42:43.371Z,59.29
2023-02-27T10:45:16.625Z,59.25
2023-02-27T10:47:44.378Z,59.32
2023-02-27T10:50:33.959Z,58.79
2023-02-27T10:53:03.620Z,58.55
2023-02-27T10:55:38.266Z,58.90
2023-02-27T10:58:05.567Z,58.81
2023-02-27T11:00:45.581Z,58.96
2023-02-27T11:03:25.949Z,59.39
2023-02-27T11:05:59.668Z,59.35
2023-02-27T11:08:30.638Z,59.71
2023-02-27T11:11:04.384Z,59.62
2023-02-27T11:13:35.486Z,59.57
2023-02-27T11:16:21.778Z,59.78
2023-02-27T11:18:51.548Z,59.68
2023-02-27T11:21:29.149Z,59.19
2023-02-27T11:24:02.853Z,59.31
2023-02-27T11:26:38.082Z,59.13
2023-02-27T11:29:19.991Z,59.10
2023-02-27T11:32:03.803Z,59.03
2023-02-27T11:34:33.377Z,59.05
2023-02-27T11:37:26.758Z,58.87
2023-02-27T11:40:09.503Z,58.76
2023-02-27T11:42:43.637Z,58.77
2023-02-27T11:46:16.673Z,59.55
2023-02-27T11:48:37.955Z,59.34
2023-02-27T11:51:10.703Z,59.20
2023-02-27T11:54:09.346Z,58.43
2023-02-27T11:57:04.783Z,58.25
2023-02-27T11:59:50.810Z,57.73
2023-02-27T12:02:27.220Z,57.16
2023-02-27T12:05:04.715Z,57.26
2023-02-27T12:08:14.634Z,56.96
2023-02-27T12:10:52.897Z,56.59
2023-02-27T12:13:26.522Z,56.33
2023-02-27T12:16:22.768Z,56.63
2023-02-27T12:19:02.251Z,56.41
2023-02-27T12:21:40.544Z,55.82
2023-02-27T12:24:24.402Z,56.05
2023-02-27T12:27:21.614Z,55.80
2023-02-27T12:29:56.254Z,55.76
2023-02-27T12:32:36.630Z,55.85
2023-02-27T12:35:33.170Z,55.34
2023-02-27T12:38:01.105Z,55.10
2023-02-27T12:40:46.686Z,54.43
2023-02-27T12:43:52.106Z,54.57
2023-02-27T12:46:39.651Z,54.39
2023-02-27T12:49:45.515Z,55.22
2023-02-27T12:52:47.066Z,54.61
2023-02-27T12:55:55.183Z,55.05
2023-02-27T12:58:42.505Z,54.43
2023-02-27T13:01:41.384Z,54.65
2023-02-27T13:04:24.871Z,53.97
2023-02-27T13:07:20.600Z,54.40
2023-02-27T13:09:55.540Z,54.54
2023-02-27T13:12:42.910Z,53.98
2023-02-27T13:15:35.013Z,53.93
2023-02-27T13:18:19.583Z,53.41
2023-02-27T13:20:57.212Z,54.86
2023-02-27T13:23:48.840Z,53.70
2023-02-27T13:26:27.097Z,53.57
2023-02-27T13:28:55.871Z,52.77
2023-02-27T13:32:03.139Z,52.32
2023-02-27T13:34:53.819Z,52.34
2023-02-27T13:37:20.702Z,51.82
2023-02-27T13:39:47.481Z,51.87
2023-02-27T13:42:26.236Z,51.71
2023-02-27T13:44:55.538Z,52.37
2023-02-27T13:47:47.405Z,51.75
2023-02-27T13:50:17.225Z,51.95
2023-02-27T13:52:45.144Z,52.21
2023-02-27T13:55:31.773Z,51.75
2023-02-27T13:58:01.064Z,51.66
2023-02-27T14:00:32.497Z,51.36
2023-02-27T14:03:07.725Z,51.72
2023-02-27T14:05:39.120Z,51.62
2023-02-27T14:08:17.264Z,51.88
2023-02-27T14:11:11.911Z,51.40
2023-02-27T14:13:51.075Z,51.61
2023-02-27T14:16:48.165Z,51.64
2023-02-27T14:19:17.872Z,51.93
2023-02-27T14:22:10.723Z,51.61
2023-02-27T14:24:41.407Z,51.52
2023-02-27T14:27:44.632Z,51.59
2023-02-27T14:30:35.964Z,51.61
2023-02-27T14:33:39.617Z,51.72
2023-02-27T14:36:15.825Z,51.23
2023-02-27T14:38:43.147Z,50.99
2023-02-27T14:41:51.490Z,50.71
2023-02-27T14:44:24.987Z,50.69
2023-02-27T14:46:58.672Z,50.92
2023-02-27T14:49:31.911Z,50.52
2023-02-27T14:52:21.495Z,50.59
2023-02-27T14:54:50.136Z,50.55
2023-02-27T14:57:24.180Z,50.44
2023-02-27T14:59:53.857Z,50.44
2023-02-27T15:02:30.437Z,50.87
2023-02-27T15:05:03.514Z,50.50
2023-02-27T15:07:34.549Z,50.66
2023-02-27T15:10:05.339Z,50.47
2023-02-27T15:12:37.838Z,50.55
2023-02-27T15:15:07.649Z,50.61
2023-02-27T15:17:41.462Z,50.61
2023-02-27T15:20:32.622Z,50.59
2023-02-27T15:23:01.630Z,50.82
2023-02-27T15:25:37.301Z,50.56
2023-02-27T15:28:21.263Z,50.61
2023-02-27T15:30:53.030Z,50.44
2023-02-27T15:33:30.180Z,50.34
2023-02-27T15:35:57.371Z,50.33
2023-02-27T15:38:34.890Z,50.20
2023-02-27T15:41:03.872Z,50.50
2023-02-27T15:43:31.500Z,50.24
2023-02-27T15:45:58.574Z,50.42
2023-02-27T15:48:26.014Z,50.28
2023-02-27T15:50:58.122Z,50.24
2023-02-27T15:53:30.777Z,50.59
2023-02-27T15:56:01.206Z,50.48
2023-02-27T15:58:32.326Z,50.71
2023-02-27T16:01:22.263Z,50.30
2023-02-27T16:03:53.096Z,50.11
2023-02-27T16:06:30.093Z,50.10
2023-02-27T16:09:01.050Z,50.40
2023-02-27T16:11:31.957Z,50.54
2023-02-27T16:13:59.118Z,50.52
2023-02-27T16:16:31.540Z,50.24
2023-02-27T16:19:03.263Z,50.31
2023-02-27T16:21:31.176Z,50.50
2023-02-27T16:24:28.067Z,50.77
2023-02-27T16:26:54.891Z,50.81
2023-02-27T16:29:24.147Z,50.86
2023-02-27T16:31:58.097Z,50.80
2023-02-27T16:34:46.517Z,50.83
2023-02-27T16:37:30.721Z,50.72
2023-02-27T16:39:57.487Z,50.96
2023-02-27T16:42:24.317Z,50.88
2023-02-27T16:44:51.111Z,51.07
2023-02-27T16:47:17.931Z,51.20
2023-02-27T16:49:46.241Z,51.13
2023-02-27T16:52:13.096Z,51.16
2023-02-27T16:54:39.909Z,51.39
2023-02-27T16:57:07.097Z,51.48
2023-02-27T16:59:37.351Z,51.31
2023-02-27T17:02:10.152Z,51.43
2023-02-27T17:04:37.402Z,51.75
2023-02-27T17:07:06.467Z,51.59
2023-02-27T17:09:35.855Z,51.64
2023-02-27T17:12:02.692Z,51.54
2023-02-27T17:14:29.461Z,51.71
2023-02-27T17:17:02.419Z,51.81
2023-02-27T17:19:29.188Z,51.73
2023-02-27T17:21:56.210Z,51.68
2023-02-27T17:24:23.230Z,51.83
2023-02-27T17:26:52.374Z,52.31
2023-02-27T17:29:19.334Z,52.01
2023-02-27T17:31:46.417Z,51.97
2023-02-27T17:34:13.396Z,52.11
2023-02-27T17:36:40.171Z,52.16
2023-02-27T17:39:07.326Z,52.36
2023-02-27T17:41:34.138Z,52.19
2023-02-27T17:44:01.765Z,52.18
2023-02-27T17:46:31.089Z,52.12
2023-02-27T17:49:00.857Z,52.25
2023-02-27T17:51:29.506Z,52.20
2023-02-27T17:53:57.477Z,52.41
2023-02-27T17:56:24.315Z,52.33
2023-02-27T17:58:51.333Z,52.37
2023-02-27T18:01:22.847Z,52.31
2023-02-27T18:03:50.329Z,52.24
2023-02-27T18:06:18.038Z,52.35
2023-02-27T18:08:45.328Z,52.38
2023-02-27T18:11:16.616Z,52.30
2023-02-27T18:13:43.431Z,52.13
2023-02-27T18:16:11.780Z,52.51
2023-02-27T18:18:40.626Z,52.28
2023-02-27T18:21:14.800Z,52.53
2023-02-27T18:23:42.170Z,53.16
2023-02-27T18:26:27.203Z,52.93
2023-02-27T18:29:00.012Z,52.75
2023-02-27T18:31:35.002Z,52.72
2023-02-27T18:34:02.296Z,52.77
2023-02-27T18:36:31.396Z,52.75
2023-02-27T18:38:59.447Z,52.62
2023-02-27T18:41:27.536Z,52.63
2023-02-27T18:43:54.331Z,52.77
2023-02-27T18:46:21.224Z,52.66
2023-02-27T18:48:48.078Z,52.97
2023-02-27T18:51:17.247Z,52.50
2023-02-27T18:53:48.567Z,52.70
2023-02-27T18:56:23.048Z,52.80
2023-02-27T18:58:50.815Z,52.81
2023-02-27T19:01:28.160Z,52.80
2023-02-27T19:04:00.418Z,52.59
2023-02-27T19:06:28.234Z,53.05
2023-02-27T19:08:55.226Z,52.98
2023-02-27T19:11:25.279Z,52.85
2023-02-27T19:13:52.563Z,52.96
2023-02-27T19:16:19.477Z,52.82
2023-02-27T19:18:46.325Z,53.10
2023-02-27T19:21:13.391Z,52.98
2023-02-27T19:23:40.245Z,53.11
2023-02-27T19:26:07.257Z,53.12
2023-02-27T19:28:34.083Z,53.12
2023-02-27T19:31:08.730Z,53.10
2023-02-27T19:33:35.655Z,53.31
2023-02-27T19:36:14.656Z,53.32
2023-02-27T19:38:42.083Z,53.40
2023-02-27T19:41:12.456Z,53.51
2023-02-27T19:43:41.233Z,53.42
2023-02-27T19:46:11.785Z,53.70
2023-02-27T19:48:38.770Z,53.83
2023-02-27T19:51:08.261Z,53.56
2023-02-27T19:53:37.762Z,53.65
2023-02-27T19:56:12.228Z,53.69
2023-02-27T19:58:39.626Z,53.77
2023-02-27T20:01:07.207Z,53.57
2023-02-27T20:03:35.414Z,53.69
2023-02-27T20:06:06.531Z,53.73
2023-02-27T20:08:34.286Z,53.76
2023-02-27T20:11:08.612Z,53.79
2023-02-27T20:13:35.413Z,54.03
2023-02-27T20:16:08.447Z,54.05
2023-02-27T20:18:36.324Z,54.05
2023-02-27T20:21:18.688Z,54.21
2023-02-27T20:23:46.621Z,54.02
2023-02-27T20:26:22.056Z,54.10
2023-02-27T20:28:52.070Z,54.17
2023-02-27T20:31:21.988Z,54.17
2023-02-27T20:33:49.430Z,54.17
2023-02-27T20:36:16.717Z,54.08
2023-02-27T20:38:43.998Z,54.28
2023-02-27T20:41:18.070Z,54.56
2023-02-27T20:43:44.871Z,54.83
2023-02-27T20:46:21.017Z,54.87
2023-02-27T20:48:47.980Z,54.56
2023-02-27T20:51:21.776Z,54.84
2023-02-27T20:53:52.621Z,54.83
2023-02-27T20:56:29.041Z,54.81
2023-02-27T20:58:55.837Z,54.71
2023-02-27T21:01:22.686Z,54.57
2023-02-27T21:03:50.875Z,54.77
2023-02-27T21:06:18.810Z,54.91
2023-02-27T21:08:51.132Z,54.82
2023-02-27T21:11:30.455Z,54.70
2023-02-27T21:14:01.538Z,54.92
2023-02-27T21:16:28.330Z,54.61
2023-02-27T21:18:56.688Z,55.25
2023-02-27T21:21:30.858Z,55.36
2023-02-27T21:23:59.094Z,54.98
2023-02-27T21:26:35.201Z,55.49
2023-02-27T21:29:10.302Z,55.06
2023-02-27T21:31:38.481Z,55.42
2023-02-27T21:34:09.118Z,55.53
2023-02-27T21:36:42.209Z,55.23
2023-02-27T21:39:16.963Z,55.73
2023-02-27T21:41:44.700Z,55.73
2023-02-27T21:44:15.315Z,55.15
2023-02-27T21:46:42.647Z,55.62
2023-02-27T21:49:24.242Z,55.31
2023-02-27T21:51:51.464Z,55.50
2023-02-27T21:54:18.980Z,55.57
2023-02-27T21:56:48.244Z,56.11
2023-02-27T21:59:16.460Z,55.94
2023-02-27T22:01:47.286Z,56.08
2023-02-27T22:04:16.529Z,55.58
2023-02-27T22:06:43.622Z,55.67
2023-02-27T22:09:10.572Z,55.95
2023-02-27T22:11:37.375Z,55.75
2023-02-27T22:14:05.996Z,56.20
2023-02-27T22:16:33.199Z,55.83
2023-02-27T22:19:04.085Z,56.03
2023-02-27T22:21:31.484Z,55.70
2023-02-27T22:23:58.531Z,55.74
2023-02-27T22:26:28.327Z,56.13
2023-02-27T22:28:59.482Z,56.16
2023-02-27T22:31:30.333Z,56.45
2023-02-27T22:34:05.098Z,56.04
2023-02-27T22:36:33.518Z,55.87
2023-02-27T22:39:00.668Z,56.49
2023-02-27T22:41:34.478Z,55.95
2023-02-27T22:44:02.381Z,56.24
2023-02-27T22:46:39.230Z,56.24
2023-02-27T22:49:11.819Z,56.21
2023-02-27T22:51:38.812Z,55.68
2023-02-27T22:54:06.980Z,56.31
2023-02-27T22:56:36.510Z,56.08
2023-02-27T22:59:20.655Z,55.93
2023-02-27T23:01:48.628Z,56.35
2023-02-27T23:04:17.088Z,56.60
2023-02-27T23:06:45.348Z,56.22
2023-02-27T23:09:16.797Z,55.93
2023-02-27T23:11:44.276Z,56.38
2023-02-27T23:14:12.139Z,56.35
2023-02-27T23:16:40.163Z,56.51
2023-02-27T23:19:06.960Z,56.00
2023-02-27T23:21:35.852Z,56.69
2023-02-27T23:24:08.447Z,56.55
2023-02-27T23:26:37.589Z,56.15
2023-02-27T23:29:06.133Z,56.61
2023-02-27T23:31:35.285Z,56.66
2023-02-27T23:34:03.704Z,56.29
2023-02-27T23:36:30.446Z,56.02
2023-02-27T23:38:59.183Z,56.65
2023-02-27T23:41:26.237Z,56.15
2023-02-27T23:44:12.286Z,56.51
2023-02-27T23:46:39.570Z,57.10
2023-02-27T23:49:06.658Z,56.92
2023-02-27T23:51:33.839Z,56.74
2023-02-27T23:54:00.846Z,56.75
2023-02-27T23:56:30.344Z,57.07
2023-02-27T23:59:03.758Z,56.35
